ROMMA est une association bénévole à but non lucratif. Votre soutien est indispensable : ADHERER à ROMMA ou FAIRE un DON

Granges-lès-Beaumont - (26, Drôme)

Drôme des Collines (155 m)   Longitude: 04°58'E   Latitude: 45°03'N Station partenaire n°123
 

Détail journalier du     <<     >>

Température Precipitation Humidité Pression Vent Dir Rafale Dir. rafale Ensol.
Heure (°C) (mm) (%) (hPa) (km/h) (km/h) (min)
01:00 1.4083102618N35NNO0
02:00 1.1084102619N35N0
03:00 0.7085102615N32NNO0
04:00 0.4085102713NNE24NO0
05:00 0.3085102813NNE26N0
06:00 0.1085102717N31N0
07:00 -0.2085102716NNO31NNE0
08:00 -0.6086102815NNO26NNO0
09:00 0.1086102815NNO27NNO0
10:00 1.3083102914N24NNE0
11:00 2.7078102917NNO27NNO0
12:00 4.6072102815NNE31NNE30
13:00 6.2066102814NNO26N60
14:00 6.2062102713NO27NNE60
15:00 6.7064102713N24N60
16:00 4.9066102716NNE24NNE40
17:00 3.9070102713N26NNE0
18:00 2.8074102713N23NNE0
19:00 2.1077102712NNE19NE0
20:00 1.408010278NNE15NE0
21:00 0.908310276NO11NO0
22:00 0.808410273NNO8NNO0
23:00 0.608510272NNO6NNO0
minuit -0.408510271---6NNO0

Graphique du 04-02-2019

 

Serveur OMMA